Date,TemperatureHighF,TemperatureAvgF,TemperatureLowF,DewpointHighF,DewpointAvgF,DewpointLowF,HumidityHigh,HumidityAvg,HumidityLow,PressureMaxIn,PressureMinIn,WindSpeedMaxMPH,WindSpeedAvgMPH,GustSpeedMaxMPH,PrecipitationSumIn
2013-1-1,57.9,49.6,40.5,57.3,47.1,37.8,98,91,79,30.04,29.76,5,1,8,0.21
2013-1-2,44.8,40.0,36.2,38.1,32.2,29.5,90,74,60,30.14,30.04,3,1,8,0.00
2013-1-3,46.2,41.1,34.9,33.4,31.6,29.9,84,69,57,30.27,30.13,4,1,9,0.00
2013-1-4,43.1,40.1,37.3,39.8,37.0,32.8,94,89,67,30.33,30.20,3,1,7,0.17
2013-1-5,53.4,42.5,31.1,44.8,38.8,29.6,95,87,71,30.21,30.04,3,0,5,0.01
2013-1-6,59.8,42.8,30.1,39.4,33.5,28.6,96,74,37,30.21,30.09,4,1,10,0.01
2013-1-7,55.5,43.5,28.7,44.8,36.2,26.9,95,77,55,30.14,29.87,6,1,11,0.00
2013-1-8,54.6,50.8,47.5,53.8,49.7,44.8,98,96,81,29.87,29.66,4,1,8,0.49
2013-1-9,60.9,55.7,47.9,58.4,54.0,46.1,98,94,84,29.83,29.64,6,1,14,1.06
2013-1-10,65.8,51.8,39.3,50.0,45.7,38.0,100,82,51,29.86,29.78,12,2,17,0.01
2013-1-11,70.0,56.7,38.7,65.8,53.8,37.5,98,90,74,29.84,29.63,5,1,10,0.00
2013-1-12,73.1,67.0,52.0,68.3,63.1,41.5,97,88,61,29.65,29.45,4,1,8,0.01
2013-1-13,55.1,46.0,38.4,41.2,33.1,27.9,69,61,46,29.98,29.65,5,2,12,0.00
2013-1-14,50.1,41.5,35.5,34.5,30.0,25.2,72,64,52,30.06,29.91,6,3,10,0.00
2013-1-15,41.9,37.5,35.0,35.8,33.4,26.5,94,85,71,30.07,29.91,4,2,11,0.03
2013-1-16,54.6,38.5,27.1,26.4,23.0,17.2,83,58,24,30.17,30.01,8,2,13,0.00
2013-1-17,66.2,46.9,29.9,38.9,33.8,24.9,88,64,33,30.30,30.12,4,1,8,0.00
2013-1-18,64.0,44.8,31.2,39.1,34.2,29.1,93,71,33,30.33,30.14,3,0,7,0.00
2013-1-19,68.1,46.7,32.0,49.8,39.7,30.3,97,79,45,30.15,29.97,6,1,10,0.00
2013-1-20,70.1,50.5,36.1,56.5,44.3,34.5,97,82,49,30.07,29.91,6,1,10,0.00
2013-1-21,72.1,53.9,38.8,56.6,47.4,37.5,97,80,52,30.05,29.95,3,0,6,0.00
2013-1-22,72.1,54.8,42.2,53.9,46.9,40.0,94,76,50,30.12,30.00,4,1,8,0.00
2013-1-23,74.3,55.6,40.4,60.1,50.3,39.1,97,84,57,30.15,30.01,6,1,11,0.00
2013-1-24,77.5,63.8,55.0,64.5,59.7,53.2,97,87,62,30.06,29.91,5,2,12,0.00
2013-1-25,78.5,66.0,59.9,64.7,60.7,57.0,96,84,59,29.95,29.82,4,1,8,0.00
2013-1-26,69.1,59.2,53.5,60.9,55.3,50.8,96,87,74,29.97,29.84,4,1,7,0.01
2013-1-27,78.0,66.4,55.1,66.2,62.4,53.3,98,88,67,29.90,29.75,5,1,12,0.00
2013-1-28,75.2,70.8,68.1,67.9,66.5,65.5,94,86,76,29.84,29.66,5,2,10,0.00
2013-1-29,84.6,70.7,56.7,68.4,57.3,29.0,90,66,33,29.67,29.30,9,3,18,0.01
2013-1-30,60.4,48.6,31.6,30.2,23.7,15.6,73,41,18,30.05,29.61,10,3,15,0.00
2013-1-31,66.8,46.3,30.2,30.8,25.6,21.0,81,51,18,30.13,30.00,8,2,13,0.00
2013-2-1,71.7,54.5,37.5,47.2,38.8,30.8,91,59,29,30.16,29.99,5,1,11,0.00
2013-2-2,74.2,55.2,38.3,57.0,46.2,35.6,95,74,44,30.09,29.97,6,1,8,0.00
2013-2-3,70.9,59.2,47.4,51.6,43.6,34.8,80,58,31,30.14,29.83,5,1,9,0.00
2013-2-4,73.8,61.5,50.1,61.2,56.3,48.2,95,84,60,29.83,29.60,6,1,11,0.00
2013-2-5,82.5,63.0,48.2,55.1,47.3,37.2,97,63,22,29.78,29.67,3,1,8,0.01
2013-2-6,74.2,63.3,57.5,62.0,58.3,55.1,97,85,59,29.79,29.64,4,1,8,0.03
2013-2-7,78.7,65.2,58.4,64.2,57.6,43.5,97,78,43,29.86,29.66,4,1,6,0.00
2013-2-8,70.0,57.0,47.1,49.0,38.7,29.2,77,54,25,30.02,29.86,7,2,13,0.00
2013-2-9,67.1,58.1,45.0,66.5,55.8,37.6,98,92,66,29.90,29.60,4,1,7,0.10
2013-2-10,68.2,63.0,55.1,66.7,46.6,31.6,98,60,28,29.81,29.55,5,1,11,0.03
2013-2-11,58.3,54.7,51.0,50.4,46.6,40.6,94,75,55,29.87,29.75,6,3,13,0.01
2013-2-12,73.4,59.3,50.6,57.7,46.1,27.1,97,68,26,29.85,29.62,6,2,10,0.02
2013-2-13,64.5,48.7,34.5,38.0,33.4,29.7,84,58,29,29.96,29.83,5,1,10,0.00
2013-2-14,69.3,48.1,31.2,42.6,35.7,29.1,95,67,32,29.96,29.82,6,1,10,0.00
2013-2-15,67.0,49.9,34.6,46.0,36.9,27.0,95,65,35,30.19,29.89,6,2,15,0.00
2013-2-16,66.3,47.2,29.9,32.1,27.8,23.1,77,50,24,30.27,30.04,5,1,9,0.00
2013-2-17,70.8,54.2,31.6,53.2,39.2,27.5,86,60,31,30.04,29.79,6,3,11,0.00
2013-2-18,80.5,66.5,54.5,62.1,50.3,28.2,88,61,22,29.88,29.63,7,3,15,0.00
2013-2-19,68.3,57.1,43.1,35.3,32.5,28.1,68,41,23,30.06,29.85,8,3,16,0.00
2013-2-20,66.8,58.3,52.4,65.3,51.2,32.1,97,79,40,29.92,29.47,6,3,10,0.04
2013-2-21,78.7,65.8,46.5,67.6,47.1,22.1,95,60,14,29.65,29.38,8,2,14,0.06
2013-2-22,63.4,52.3,41.9,40.5,36.0,29.9,76,55,36,29.83,29.65,6,2,8,0.00
2013-2-23,76.3,55.1,41.3,42.3,35.2,29.3,72,50,23,29.86,29.66,6,1,14,0.00
2013-2-24,72.0,55.2,34.9,59.1,47.7,32.2,92,77,56,29.73,29.40,5,2,7,0.00
2013-2-25,65.4,56.8,46.8,59.7,37.5,19.3,96,54,18,29.66,29.38,21,8,31,0.01
2013-2-26,68.1,51.9,38.8,32.6,29.9,25.9,70,46,21,29.77,29.65,6,2,14,0.00
2013-2-27,66.3,50.8,35.0,37.3,30.6,22.9,82,49,25,30.04,29.68,7,2,15,0.00
2013-2-28,63.7,48.1,33.9,32.5,27.3,22.2,71,46,24,30.15,29.99,4,1,8,0.00
2013-3-1,69.5,51.5,32.5,33.1,27.1,15.4,82,46,15,30.11,29.93,4,1,6,0.00
2013-3-2,65.1,48.8,35.3,31.5,28.8,26.1,76,49,26,30.23,30.07,5,1,10,0.00
2013-3-3,75.4,53.7,29.3,43.8,33.8,24.7,83,53,23,30.09,29.76,7,2,15,0.00
2013-3-4,86.7,64.0,47.5,54.7,47.5,43.1,92,60,26,29.76,29.51,6,2,10,0.00
2013-3-5,68.4,55.9,42.5,57.1,29.6,13.7,95,43,14,30.15,29.58,7,3,15,0.00
2013-3-6,64.4,48.9,35.1,26.5,21.1,15.8,59,35,17,30.25,30.03,6,1,12,0.00
2013-3-7,74.0,55.2,35.2,55.3,44.2,24.3,82,68,45,30.06,29.90,4,2,13,0.00
2013-3-8,66.2,62.1,58.5,64.3,59.0,53.5,96,90,79,29.95,29.79,4,1,8,0.05
2013-3-9,74.4,66.0,61.7,68.7,63.3,59.4,98,91,79,29.82,29.45,6,2,11,0.07
2013-3-10,67.9,60.5,47.4,63.7,43.9,33.7,95,58,32,29.93,29.45,7,2,14,0.73
2013-3-11,70.2,50.3,37.2,36.4,31.7,24.6,88,56,22,30.00,29.81,8,1,9,0.00
2013-3-12,78.8,53.4,31.6,41.8,35.4,29.5,93,59,19,30.04,29.88,6,1,11,0.00
2013-3-13,76.5,56.7,38.9,44.5,40.2,36.3,93,60,27,30.24,30.04,4,1,8,0.00
2013-3-14,79.0,59.2,40.0,56.2,46.0,36.3,96,66,32,30.20,30.02,6,1,10,0.00
2013-3-15,80.9,63.9,44.2,57.4,48.9,42.5,97,64,27,30.06,29.80,6,2,15,0.00
2013-3-16,84.3,67.9,54.5,62.1,57.3,51.9,96,73,36,29.81,29.54,7,2,11,0.00
2013-3-17,84.3,71.1,65.0,64.5,62.0,58.8,90,75,44,29.62,29.44,4,2,10,0.00
2013-3-18,93.7,74.6,62.3,67.3,55.0,38.3,95,61,15,29.72,29.50,5,1,9,0.00
2013-3-19,81.1,67.0,52.7,66.2,56.1,45.5,82,68,55,29.78,29.62,5,2,7,0.00
2013-3-20,72.1,61.1,48.8,60.0,48.5,34.9,92,67,29,30.02,29.75,9,3,13,0.05
2013-3-21,62.5,51.7,45.8,55.2,45.7,41.8,90,80,70,29.83,29.70,4,0,7,0.00
2013-3-22,85.4,72.7,61.3,68.5,63.5,51.4,96,75,45,29.54,29.41,7,2,11,0.01
2013-3-23,80.9,63.8,54.2,63.5,55.1,49.0,90,75,53,29.58,29.37,6,1,9,0.00
2013-3-24,62.9,53.7,41.9,59.6,34.3,21.4,95,52,22,29.97,29.50,7,3,13,0.00
2013-3-25,61.0,47.1,37.2,27.0,22.2,14.3,64,41,17,30.20,29.97,9,2,16,0.00
2013-3-26,65.3,47.9,29.8,27.0,23.5,18.8,74,42,17,30.31,30.10,3,1,8,0.00
2013-3-27,68.1,51.8,31.6,50.4,38.8,25.1,85,63,43,30.14,29.97,4,2,11,0.00
2013-3-28,71.3,63.5,56.3,60.0,56.0,50.4,86,77,67,30.01,29.91,4,1,8,0.00
2013-3-29,77.1,67.7,58.3,62.0,58.1,56.3,94,73,50,29.97,29.84,5,1,9,0.00
2013-3-30,84.6,71.3,64.4,65.3,62.2,58.4,90,75,48,29.91,29.68,5,2,9,0.00
2013-3-31,83.7,69.4,59.5,67.4,64.0,58.4,96,84,55,29.75,29.61,6,1,8,0.18
2013-4-1,85.9,70.8,57.9,68.6,62.9,56.8,98,79,45,29.84,29.67,4,1,8,0.00
2013-4-2,77.1,67.8,60.5,69.8,64.1,58.5,95,88,67,29.80,29.61,11,1,14,0.28
2013-4-3,60.1,53.4,49.5,58.1,51.5,46.7,96,93,90,29.93,29.61,7,2,10,0.61
2013-4-4,66.0,53.5,47.3,47.3,44.9,41.3,92,74,49,30.03,29.90,6,2,13,0.00
2013-4-5,72.5,54.1,37.3,51.5,44.4,35.9,96,73,44,30.08,29.87,5,0,8,0.00
2013-4-6,81.6,64.9,49.2,60.5,55.2,46.1,94,73,46,29.89,29.65,6,2,13,0.00
2013-4-7,84.8,69.1,60.6,66.9,61.8,57.8,93,79,51,29.72,29.55,5,2,9,0.00
2013-4-8,76.1,69.7,66.6,68.2,65.2,61.7,93,86,76,29.63,29.47,4,2,9,0.00
2013-4-9,87.4,74.9,69.4,72.4,68.0,65.5,91,80,57,29.51,29.36,6,2,10,0.00
2013-4-10,74.2,60.3,46.4,69.4,54.7,42.8,93,82,64,29.72,29.42,6,3,13,0.24
2013-4-11,68.5,54.0,44.9,46.2,42.0,37.3,90,66,41,29.79,29.60,5,2,10,0.02
2013-4-12,80.4,60.0,40.6,52.0,45.4,39.3,96,65,28,29.81,29.65,4,1,8,0.00
2013-4-13,76.9,62.7,45.2,60.9,52.9,43.5,96,73,46,29.77,29.56,6,1,9,0.00
2013-4-14,87.1,69.3,51.8,69.0,61.3,49.8,96,78,46,29.63,29.40,4,1,8,0.00
2013-4-15,88.9,76.8,68.2,69.9,67.1,64.4,93,75,47,29.58,29.48,3,1,8,0.00
2013-4-16,85.1,75.7,62.6,71.5,67.5,60.2,94,77,59,29.68,29.57,5,2,11,0.00
2013-4-17,81.8,74.9,71.7,72.6,70.8,69.3,96,88,68,29.66,29.45,4,2,8,0.00
2013-4-18,74.9,63.6,50.9,71.4,55.4,37.8,92,76,52,29.86,29.44,5,2,10,0.26
2013-4-19,69.9,54.5,37.0,38.6,33.5,27.2,89,50,22,30.10,29.85,6,2,13,0.00
2013-4-20,74.0,55.1,33.7,47.8,36.3,27.7,94,57,21,30.04,29.79,3,1,15,0.00
2013-4-21,80.0,64.4,50.0,59.1,53.2,45.6,89,69,45,29.94,29.79,4,1,7,0.00
2013-4-22,84.5,69.9,56.9,65.1,59.9,55.5,96,73,46,29.91,29.66,6,1,9,0.00
2013-4-23,77.6,67.6,53.2,67.9,60.4,43.7,89,78,59,29.87,29.64,4,2,12,0.00
2013-4-24,62.2,53.7,45.8,43.6,39.7,36.1,81,60,43,30.06,29.87,7,3,18,0.00
2013-4-25,67.5,61.0,56.1,49.7,44.6,41.4,63,55,45,30.12,29.98,7,2,12,0.00
2013-4-26,78.3,69.2,60.0,70.1,62.9,50.0,96,81,63,30.00,29.81,4,1,8,0.01
2013-4-27,82.7,73.0,66.7,70.7,67.1,64.7,94,83,59,29.87,29.72,4,1,7,0.02
2013-4-28,83.7,71.0,56.0,65.3,61.9,54.3,97,75,45,29.81,29.64,3,1,8,0.01
2013-4-29,84.7,70.6,60.9,71.2,64.1,59.2,96,82,51,29.73,29.56,7,1,11,0.06
2013-4-30,83.2,71.1,64.1,67.6,64.9,61.1,97,82,56,29.63,29.51,3,0,7,0.00
2013-5-1,87.2,75.5,64.9,69.9,66.8,62.5,94,76,54,29.71,29.57,3,1,5,0.00
2013-5-2,74.7,58.2,49.0,67.0,51.1,38.9,94,77,66,30.12,29.61,13,5,18,0.71
2013-5-3,69.8,56.0,42.6,38.4,33.9,28.9,82,47,22,30.15,29.89,6,2,10,0.00
2013-5-4,82.4,60.5,37.8,44.4,38.4,35.0,91,51,20,29.91,29.68,7,2,15,0.00
2013-5-5,79.7,62.9,46.8,48.9,44.2,38.4,85,54,29,29.94,29.78,5,2,11,0.00
2013-5-6,77.2,60.8,44.3,53.6,47.9,42.1,93,66,40,29.95,29.79,3,0,6,0.00
2013-5-7,85.7,67.3,47.6,61.4,53.0,45.7,96,65,34,29.89,29.72,3,1,8,0.00
2013-5-8,84.4,71.8,59.0,67.3,63.0,55.4,92,75,52,29.81,29.66,4,1,7,0.00
2013-5-9,78.5,72.4,61.8,72.6,67.5,59.5,93,85,77,29.78,29.62,9,1,12,0.72
2013-5-10,83.2,69.6,60.5,69.0,63.6,58.9,96,83,55,29.81,29.62,10,2,13,0.23
2013-5-11,81.0,70.6,62.2,63.7,59.5,52.6,96,71,43,29.94,29.79,6,2,10,0.01
2013-5-12,80.2,68.6,55.5,57.0,52.8,49.1,87,59,37,30.04,29.90,6,2,9,0.00
2013-5-13,84.7,67.2,49.2,60.7,54.0,46.7,95,67,35,30.06,29.94,4,0,6,0.00
2013-5-14,85.0,71.0,54.9,68.1,62.2,53.2,96,75,53,30.02,29.79,4,1,9,0.00
2013-5-15,85.9,75.0,69.6,72.8,69.3,66.6,95,83,61,29.89,29.61,5,2,11,0.02
2013-5-16,93.3,78.9,71.3,74.6,70.7,67.6,89,78,50,29.65,29.49,5,2,10,0.00
2013-5-17,94.7,80.8,73.6,77.0,72.4,69.0,91,77,52,29.69,29.56,3,1,8,0.00
2013-5-18,96.0,80.5,70.8,73.7,69.2,64.9,95,71,45,29.70,29.59,5,2,13,0.00
2013-5-19,92.6,79.9,71.8,75.1,70.2,66.0,90,74,52,29.65,29.50,4,2,11,0.00
2013-5-20,92.7,80.1,70.6,74.3,70.7,66.7,95,75,53,29.63,29.47,5,2,13,0.00
2013-5-21,90.8,79.9,72.4,74.5,71.4,60.4,93,76,58,29.66,29.47,7,1,13,0.00
2013-5-22,90.8,77.7,60.3,74.0,65.0,55.5,88,66,46,29.71,29.58,3,1,6,0.00
2013-5-23,91.4,80.5,72.5,73.9,72.0,69.7,92,77,55,29.81,29.64,2,0,8,0.00
2013-5-24,77.9,72.7,68.6,75.5,70.5,65.8,97,93,82,29.89,29.78,5,0,7,1.63
2013-5-25,79.3,72.4,67.9,74.0,70.2,67.2,98,93,74,29.95,29.81,3,0,5,1.66
2013-5-26,83.1,75.6,70.8,76.3,71.6,67.4,96,88,71,29.88,29.76,2,0,4,0.08
2013-5-27,88.5,77.6,70.0,74.8,71.2,67.2,95,82,62,29.82,29.63,2,0,4,0.00
2013-5-28,89.2,79.0,73.0,74.8,71.3,69.6,91,78,58,29.71,29.55,3,1,7,0.00
2013-5-29,86.7,78.1,72.8,75.3,72.1,69.9,93,82,67,29.67,29.50,3,1,9,0.00
2013-5-30,88.5,80.4,74.4,75.5,73.0,71.2,91,79,64,29.63,29.54,2,0,6,0.00
2013-5-31,91.5,81.3,75.2,77.6,74.1,72.4,92,79,61,29.66,29.53,3,0,4,0.00
2013-6-1,93.6,82.9,75.8,77.2,74.1,72.4,90,76,56,29.69,29.57,3,0,11,0.00
2013-6-2,86.8,75.3,65.9,73.6,67.0,61.1,95,78,43,29.84,29.68,6,1,9,0.20
2013-6-3,90.3,75.0,61.5,71.4,65.8,59.6,97,76,44,29.78,29.62,2,0,3,0.00
2013-6-4,92.0,78.9,66.8,73.0,68.8,64.4,96,74,45,29.70,29.58,2,0,4,0.00
2013-6-5,92.5,78.6,65.0,72.4,68.7,62.9,96,74,46,29.67,29.52,2,0,5,0.00
2013-6-6,92.2,78.7,65.3,73.4,68.4,63.6,97,73,48,29.71,29.54,5,1,8,0.00
2013-6-7,81.6,74.4,66.5,70.5,66.1,63.2,89,76,59,29.78,29.66,5,1,9,0.00
2013-6-8,89.8,75.1,58.7,73.0,66.3,56.8,96,76,53,29.73,29.57,1,0,5,0.00
2013-6-9,90.3,78.7,70.3,76.4,72.1,66.8,94,81,56,29.75,29.63,2,0,7,0.00
2013-6-10,93.3,80.3,67.3,75.7,70.6,64.7,95,75,48,29.77,29.68,2,0,5,0.00
2013-6-11,92.7,78.5,70.9,74.6,71.4,65.7,95,80,52,29.82,29.75,4,0,4,0.00
2013-6-12,92.9,79.1,69.0,76.6,72.3,66.3,96,81,54,29.84,29.74,2,0,12,0.00
2013-6-13,93.5,78.3,71.3,76.8,73.5,68.4,95,87,54,29.85,29.72,4,0,8,0.28
2013-6-14,85.9,78.4,72.6,78.5,74.7,71.4,98,89,72,29.79,29.68,1,0,5,0.05
2013-6-15,88.6,80.9,75.7,77.4,75.1,71.9,96,83,66,29.78,29.67,2,0,6,0.00
2013-6-16,94.5,83.7,74.9,75.9,73.3,70.2,94,73,46,29.80,29.67,3,0,9,0.00
2013-6-17,95.6,84.1,75.7,75.6,73.1,68.3,92,72,42,29.78,29.63,2,0,6,0.00
2013-6-18,94.7,82.9,75.4,74.5,71.0,63.4,92,70,38,29.78,29.65,4,0,6,0.00
2013-6-19,96.4,84.7,75.5,74.0,71.8,66.8,92,68,43,29.78,29.67,2,0,7,0.00
2013-6-20,97.1,83.7,73.5,75.4,71.5,65.3,93,70,39,29.84,29.72,2,0,7,0.00
2013-6-21,97.0,84.3,76.4,75.1,70.6,62.5,92,67,35,29.86,29.74,2,0,8,0.00
2013-6-22,97.8,84.8,75.5,73.6,70.5,63.3,91,66,35,29.83,29.67,2,0,6,0.00
2013-6-23,96.6,83.9,76.4,74.1,69.7,61.7,91,66,35,29.77,29.66,2,0,6,0.00
2013-6-24,99.5,84.4,75.0,75.2,71.3,66.8,92,68,38,29.81,29.67,3,1,7,0.00
2013-6-25,99.3,85.5,76.2,74.0,71.1,66.1,90,65,36,29.79,29.65,4,1,8,0.00
2013-6-26,100.3,85.9,75.7,75.0,71.9,67.8,89,66,36,29.76,29.64,2,0,9,0.00
2013-6-27,100.7,85.4,74.9,74.4,69.1,60.7,92,63,29,29.81,29.68,2,0,5,0.03
2013-6-28,103.0,86.6,74.8,73.5,69.1,65.4,91,61,32,29.78,29.59,3,1,7,0.00
2013-6-29,108.3,91.5,72.9,72.9,65.5,58.4,86,47,21,29.66,29.51,4,1,8,0.00
2013-6-30,90.6,79.4,69.5,74.4,68.5,62.3,94,71,40,29.74,29.58,5,1,12,0.03
2013-7-1,90.4,80.6,69.0,68.9,58.2,52.5,74,48,29,29.79,29.66,4,1,8,0.00
2013-7-2,93.6,78.2,66.1,61.9,56.3,49.4,81,52,24,29.86,29.74,4,1,10,0.00
2013-7-3,97.4,81.7,66.0,63.2,51.2,43.1,71,39,17,29.81,29.67,3,1,9,0.00
2013-7-4,97.4,79.3,64.9,70.9,61.2,53.4,93,59,24,29.78,29.66,3,0,8,0.00
2013-7-5,98.0,83.3,65.5,72.3,63.6,58.7,94,56,30,29.77,29.61,2,0,8,0.00
2013-7-6,98.9,83.3,69.3,73.4,67.3,60.4,93,63,32,29.73,29.59,3,0,12,0.00
2013-7-7,98.9,82.8,72.1,76.5,71.7,67.4,93,71,41,29.76,29.65,3,0,6,0.01
2013-7-8,90.5,80.9,75.8,75.0,72.8,70.7,90,77,57,29.90,29.76,2,0,7,0.00
2013-7-9,100.0,85.5,74.9,75.2,72.1,68.5,94,68,38,29.93,29.77,2,0,10,0.00
2013-7-10,99.8,85.8,74.2,74.8,71.5,66.8,93,66,36,29.88,29.70,3,0,10,0.00
2013-7-11,99.5,85.7,74.4,74.5,69.5,63.2,91,62,34,29.80,29.65,4,0,9,0.00
2013-7-12,101.6,86.1,74.5,75.9,69.0,61.5,92,61,30,29.75,29.64,2,0,5,0.00
2013-7-13,104.1,87.4,70.4,71.5,65.1,59.7,88,52,25,29.76,29.61,4,0,7,0.00
2013-7-14,101.9,81.9,71.8,73.7,68.3,62.8,91,66,31,29.69,29.61,9,1,16,0.01
2013-7-15,81.9,74.4,69.6,75.7,72.0,67.6,96,92,75,29.81,29.66,7,0,7,0.19
2013-7-16,86.4,75.3,71.7,76.9,72.9,70.5,98,93,68,29.91,29.79,3,0,9,0.29
2013-7-17,87.0,73.8,70.5,77.7,71.7,69.4,97,94,68,29.96,29.89,4,0,8,0.83
2013-7-18,95.3,77.4,70.2,76.9,71.7,68.3,98,85,47,29.95,29.79,7,0,9,0.46
2013-7-19,93.0,79.8,67.7,77.0,70.8,66.6,98,77,46,29.87,29.68,1,0,5,0.01
2013-7-20,95.2,81.0,70.7,74.8,71.0,67.2,96,74,43,29.79,29.63,3,0,7,0.00
2013-7-21,94.8,81.3,73.0,77.4,73.9,70.2,96,80,48,29.76,29.66,3,0,7,0.00
2013-7-22,97.3,84.4,76.4,77.3,74.5,71.0,95,74,44,29.78,29.66,2,0,8,0.00
2013-7-23,97.4,85.0,76.5,75.7,72.5,65.6,89,69,38,29.80,29.65,3,0,8,0.00
2013-7-24,94.7,83.4,75.7,75.5,73.5,70.8,92,74,49,29.78,29.65,3,0,8,0.00
2013-7-25,96.3,84.4,74.5,75.4,72.7,68.8,94,71,44,29.81,29.73,3,0,8,0.00
2013-7-26,98.5,84.6,72.1,76.9,73.1,68.8,94,71,43,29.82,29.65,2,0,8,0.00
2013-7-27,89.4,81.0,73.7,76.7,73.2,69.3,95,78,58,29.79,29.64,5,1,9,0.02
2013-7-28,96.0,83.5,73.6,76.5,72.2,68.9,89,70,47,29.73,29.62,2,0,7,0.00
2013-7-29,99.1,85.9,77.4,75.0,71.9,65.6,90,66,34,29.82,29.71,2,1,10,0.00
2013-7-30,100.5,86.0,77.1,75.5,71.6,65.6,88,66,33,29.88,29.74,3,0,10,0.00
2013-7-31,100.6,84.7,73.7,74.0,68.6,60.7,93,64,28,29.88,29.70,4,0,8,0.00
2013-8-1,100.9,86.9,73.7,74.9,70.3,67.5,91,61,35,29.81,29.66,3,0,9,0.00
2013-8-2,100.0,86.1,73.0,74.3,69.5,66.7,89,60,36,29.77,29.65,3,0,9,0.00
2013-8-3,100.2,86.6,76.2,74.2,71.6,68.1,90,64,37,29.81,29.69,3,0,7,0.00
2013-8-4,100.9,86.3,76.4,76.1,72.8,68.8,93,67,37,29.85,29.69,2,0,8,0.00
2013-8-5,102.4,86.2,71.4,75.3,70.2,65.1,92,63,31,29.82,29.65,3,1,7,0.00
2013-8-6,103.7,87.8,76.4,75.0,70.9,63.6,89,62,29,29.74,29.57,4,1,10,0.00
2013-8-7,103.2,87.7,76.8,75.2,71.1,61.3,89,62,28,29.71,29.56,3,1,8,0.00
2013-8-8,103.2,87.1,76.7,74.2,70.3,60.2,86,62,27,29.69,29.55,4,1,9,0.00
2013-8-9,101.5,85.2,73.1,73.3,68.0,56.6,94,62,23,29.75,29.63,2,0,5,0.00
2013-8-10,102.9,85.3,72.3,74.6,71.5,67.0,91,66,33,29.82,29.69,4,1,11,0.00
2013-8-11,99.4,83.1,73.1,75.4,71.9,68.5,93,72,38,29.86,29.73,4,0,11,0.00
2013-8-12,97.5,83.9,69.7,73.0,70.0,66.6,94,66,39,29.86,29.72,2,0,7,0.00
2013-8-13,100.5,86.4,75.9,74.9,70.9,64.9,92,64,33,29.82,29.66,4,1,8,0.00
2013-8-14,103.2,86.2,75.2,73.5,70.2,63.6,90,62,31,29.78,29.64,6,2,15,0.00
2013-8-15,101.0,83.3,73.7,73.9,70.0,65.0,94,68,33,29.79,29.66,7,1,7,0.20
2013-8-16,96.0,80.1,70.5,77.9,70.5,61.1,97,76,34,29.84,29.68,5,1,10,0.30
2013-8-17,95.3,80.7,69.4,72.3,65.8,56.6,93,65,32,29.82,29.70,5,1,11,0.00
2013-8-18,96.0,79.2,65.0,70.2,63.1,60.1,89,62,33,29.83,29.74,3,0,5,0.00
2013-8-19,94.7,79.3,65.6,68.2,63.6,59.7,93,62,34,29.85,29.70,2,0,8,0.00
2013-8-20,96.6,79.4,66.1,73.8,67.4,60.8,96,69,33,29.81,29.72,4,1,8,0.00
2013-8-21,97.1,81.0,70.8,74.4,70.0,66.5,92,71,41,29.86,29.76,2,0,3,0.00
2013-8-22,95.6,82.4,69.3,75.0,70.5,66.9,95,70,45,29.87,29.69,6,0,8,0.00
2013-8-23,98.0,83.7,70.2,75.1,69.2,65.4,95,65,36,29.81,29.66,3,0,9,0.00
2013-8-24,100.2,84.6,72.7,75.9,70.2,66.5,94,66,35,29.82,29.68,8,1,13,0.08
2013-8-25,96.1,82.5,70.4,74.8,70.7,67.6,95,71,41,29.87,29.77,6,2,17,0.00
2013-8-26,88.4,77.7,73.1,75.7,72.6,70.8,96,85,58,29.89,29.81,5,1,13,0.31
2013-8-27,88.4,78.1,72.3,77.4,72.4,69.6,98,84,60,29.91,29.81,3,0,8,0.01
2013-8-28,95.3,80.9,70.3,76.2,70.2,67.0,97,73,43,29.90,29.78,2,0,7,0.00
2013-8-29,99.9,83.6,71.8,74.5,69.2,65.5,94,66,36,29.88,29.73,3,0,5,0.00
2013-8-30,100.7,86.6,72.5,72.8,68.4,64.6,87,57,33,29.81,29.64,3,0,7,0.00
2013-8-31,100.0,85.7,71.0,73.0,69.4,66.5,91,61,37,29.73,29.59,3,0,6,0.00
2013-9-1,100.2,84.8,70.7,74.6,69.3,65.3,93,63,36,29.70,29.58,3,0,7,0.00
2013-9-2,101.2,84.7,71.0,75.1,69.8,64.7,94,65,31,29.76,29.60,3,0,8,0.00
2013-9-3,100.7,84.9,68.6,72.4,67.2,63.6,93,60,31,29.78,29.64,3,0,5,0.00
2013-9-4,98.5,82.5,73.5,81.0,72.0,68.4,94,73,40,29.85,29.71,9,0,13,0.29
2013-9-5,96.2,80.0,69.6,76.0,71.3,68.1,97,77,43,29.89,29.77,4,1,9,0.01
2013-9-6,96.4,82.2,70.5,75.0,70.4,66.3,95,70,41,29.88,29.72,4,0,10,0.00
2013-9-7,96.3,80.5,71.7,74.7,70.8,68.4,94,75,42,29.82,29.66,4,0,10,0.00
2013-9-8,89.1,76.6,70.8,76.7,71.6,68.0,95,85,57,29.77,29.67,3,0,9,0.25
2013-9-9,90.0,76.9,68.9,75.6,70.4,66.8,96,82,52,29.78,29.69,2,0,6,0.01
2013-9-10,93.1,76.9,70.0,74.7,70.8,67.3,96,83,48,29.84,29.76,4,0,9,0.01
2013-9-11,95.0,80.4,71.2,75.1,70.2,62.7,96,75,37,29.88,29.76,4,1,11,0.00
2013-9-12,95.2,79.2,68.3,74.5,68.5,63.7,96,73,37,29.85,29.68,4,0,7,0.00
2013-9-13,97.0,81.5,68.4,70.7,65.3,60.3,95,63,32,29.76,29.59,4,1,12,0.00
2013-9-14,96.9,79.9,65.9,71.8,66.8,62.6,93,68,39,29.73,29.61,5,0,9,0.00
2013-9-15,95.7,80.9,70.4,75.3,70.6,67.4,94,73,43,29.79,29.69,4,1,7,0.00
2013-9-16,92.0,77.8,72.8,76.3,72.3,68.1,93,84,53,29.83,29.73,5,1,11,0.09
2013-9-17,91.8,78.7,70.1,77.5,71.8,68.6,97,81,52,29.84,29.72,3,0,8,0.01
2013-9-18,94.1,80.2,71.9,76.0,71.1,68.4,95,76,46,29.80,29.66,3,0,8,0.00
2013-9-19,93.5,80.2,74.2,77.2,73.5,70.3,95,81,52,29.73,29.59,3,0,8,0.03
2013-9-20,79.1,75.1,70.3,77.7,73.2,68.6,97,94,89,29.66,29.54,5,1,9,0.81
2013-9-21,84.9,73.3,63.2,69.0,62.5,52.1,94,72,39,29.71,29.61,6,3,16,0.00
2013-9-22,85.1,70.4,57.6,56.7,52.4,46.2,86,56,27,29.70,29.57,4,1,11,0.00
2013-9-23,89.2,69.3,52.8,59.7,54.8,51.0,95,66,30,29.64,29.54,2,0,4,0.00
2013-9-24,95.2,75.9,61.4,67.0,60.4,56.5,89,63,32,29.72,29.61,4,1,9,0.00
2013-9-25,95.3,78.5,64.2,67.7,62.2,59.0,92,62,33,29.69,29.56,2,0,8,0.00
2013-9-26,91.7,78.1,63.0,73.8,66.4,58.2,95,70,38,29.69,29.59,3,0,5,0.00
2013-9-27,91.7,79.4,74.9,78.5,74.9,72.8,95,87,61,29.70,29.60,2,0,6,0.17
2013-9-28,90.9,80.1,74.7,77.6,75.2,73.2,96,86,58,29.75,29.64,6,0,9,1.52
2013-9-29,75.8,70.8,65.7,74.4,67.7,63.3,97,90,77,29.83,29.73,5,1,11,2.92
2013-9-30,87.2,71.3,60.4,66.1,61.8,58.3,96,76,39,29.75,29.60,1,0,4,0.00
2013-10-1,89.6,75.3,62.6,74.3,69.2,60.4,96,83,53,29.71,29.61,1,0,5,0.00
2013-10-2,89.6,79.8,74.6,76.1,73.4,70.5,96,82,56,29.74,29.63,2,0,6,0.04
2013-10-3,89.2,80.3,74.2,74.5,72.6,69.3,93,79,57,29.72,29.61,2,0,4,0.00
2013-10-4,90.3,78.4,72.2,74.3,71.6,69.7,95,81,54,29.71,29.61,3,0,9,0.00
2013-10-5,88.5,76.3,62.5,72.7,65.1,43.6,93,70,49,29.83,29.66,5,1,12,0.00
2013-10-6,79.8,63.5,51.1,55.7,48.7,38.1,95,64,23,29.94,29.81,6,1,10,0.37
2013-10-7,84.1,64.9,50.5,55.3,48.7,41.0,93,63,24,29.97,29.84,2,0,4,0.00
2013-10-8,82.9,64.0,49.6,57.6,51.6,47.5,96,70,32,29.90,29.78,2,0,3,0.00
2013-10-9,82.9,65.7,50.6,64.7,57.7,49.1,97,78,50,29.87,29.75,2,0,8,0.00
2013-10-10,86.4,71.1,57.2,69.5,63.6,55.7,97,79,54,29.83,29.67,2,0,4,0.00
2013-10-11,88.5,77.9,70.4,75.7,72.1,66.0,92,83,63,29.72,29.61,1,0,4,0.00
2013-10-12,90.5,80.5,76.1,76.3,74.1,71.5,93,82,57,29.79,29.68,3,0,11,0.00
2013-10-13,76.9,72.2,65.7,74.5,70.8,64.2,98,95,90,29.96,29.79,7,1,20,1.03
2013-10-14,82.3,74.3,71.7,76.7,72.4,70.7,98,94,80,29.89,29.70,1,0,3,0.13
2013-10-15,84.1,74.4,61.5,73.5,69.8,58.2,97,87,63,29.79,29.66,3,0,7,0.01
2013-10-16,61.4,57.9,54.6,58.5,56.1,53.2,96,94,89,29.88,29.73,3,1,8,0.87
2013-10-17,72.6,60.0,51.9,58.4,52.7,49.1,94,79,51,29.94,29.78,4,1,7,0.00
2013-10-18,72.4,62.9,52.7,65.5,60.2,51.0,96,91,78,29.80,29.68,1,0,4,0.01
2013-10-19,67.4,57.2,44.8,63.7,47.2,38.6,96,73,37,29.99,29.78,5,2,9,0.00
2013-10-20,73.7,55.6,42.3,52.6,47.0,40.4,96,76,43,29.91,29.73,2,0,5,0.00
2013-10-21,77.3,65.7,53.2,69.8,61.6,50.9,96,87,74,29.86,29.70,4,0,5,0.00
2013-10-22,75.1,61.3,48.6,56.4,48.3,39.6,91,67,29,29.96,29.85,4,1,10,0.00
2013-10-23,80.5,61.8,49.2,52.7,47.9,42.5,93,66,27,29.99,29.90,3,0,6,0.00
2013-10-24,79.5,61.2,47.2,55.5,50.5,45.0,95,72,38,30.04,29.93,3,0,6,0.00
2013-10-25,79.4,63.8,48.8,63.8,57.2,47.2,97,81,57,30.11,29.99,3,0,5,0.00
2013-10-26,81.2,70.3,63.2,67.5,63.5,60.4,94,80,57,30.02,29.86,2,0,7,0.00
2013-10-27,75.5,69.1,63.5,68.5,65.0,59.9,95,87,74,29.90,29.79,3,1,7,0.02
2013-10-28,82.6,72.8,66.6,71.4,66.8,63.4,96,83,62,29.88,29.76,1,0,5,0.00
2013-10-29,84.6,75.0,69.5,72.8,69.1,66.1,94,83,63,29.87,29.74,2,0,7,0.00
2013-10-30,83.6,77.0,72.7,74.8,72.8,69.0,96,87,74,29.82,29.57,3,0,6,0.02
2013-10-31,81.6,70.3,52.0,73.1,61.1,43.4,97,78,28,29.69,29.55,6,1,12,1.53
2013-11-1,83.6,63.7,49.1,63.2,50.8,41.0,97,68,23,29.87,29.63,5,1,9,0.00
2013-11-2,73.4,60.9,44.9,46.8,42.6,35.7,90,55,26,30.09,29.87,4,1,8,0.00
2013-11-3,68.9,54.1,39.5,54.3,44.1,37.9,96,73,35,30.03,29.84,2,0,7,0.00
2013-11-4,69.4,62.9,58.4,63.4,59.1,54.0,94,87,78,29.87,29.76,1,0,2,0.02
2013-11-5,80.3,70.9,64.8,71.2,67.2,62.8,97,89,68,29.81,29.68,1,0,3,0.00
2013-11-6,75.7,63.9,54.1,71.8,58.3,42.8,96,82,65,30.11,29.76,6,2,9,0.03
2013-11-7,63.2,53.9,45.0,44.0,39.7,34.2,76,60,36,30.25,30.11,6,2,11,0.00
2013-11-8,64.2,56.4,49.6,49.9,44.2,38.5,82,65,42,30.19,29.98,3,0,5,0.00
2013-11-9,68.9,60.3,54.3,60.7,54.9,47.8,93,83,71,30.00,29.91,1,0,3,0.09
2013-11-10,65.2,62.5,60.8,59.4,58.2,56.1,92,86,74,30.10,29.97,3,0,5,0.00
2013-11-11,74.1,60.9,50.4,58.5,54.4,48.2,95,81,54,30.08,29.95,1,0,4,0.00
2013-11-12,62.0,54.1,43.6,55.3,46.5,27.1,95,77,51,30.43,30.04,6,2,11,0.00
2013-11-13,55.7,41.6,30.5,31.5,28.3,26.3,90,62,34,30.45,30.22,5,1,10,0.00
2013-11-14,61.3,46.1,28.9,48.6,36.7,26.9,94,73,40,30.22,29.87,2,0,5,0.00
2013-11-15,76.3,59.3,45.4,60.3,52.6,42.4,95,80,56,29.88,29.68,3,0,9,0.00
2013-11-16,79.4,70.5,51.9,71.0,66.1,49.9,97,87,71,29.73,29.55,3,0,9,0.00
2013-11-17,87.2,74.2,63.5,72.3,68.8,61.7,95,85,50,29.73,29.58,2,0,5,0.00
2013-11-18,75.4,67.2,58.4,67.9,62.7,56.8,96,86,73,29.90,29.73,3,1,9,0.00
2013-11-19,70.9,62.5,52.3,58.0,51.2,45.7,82,67,50,29.94,29.79,3,1,9,0.00
2013-11-20,71.4,64.6,58.5,66.0,59.1,51.9,94,83,73,29.82,29.68,1,0,4,0.00
2013-11-21,78.8,72.7,67.9,72.9,70.3,66.4,97,92,80,29.84,29.72,1,0,4,0.10
2013-11-22,72.1,45.6,36.0,70.9,43.9,33.9,97,93,91,30.18,29.83,6,3,13,0.29
2013-11-23,42.2,39.2,36.5,39.9,36.8,34.0,94,91,87,30.27,30.16,6,3,11,0.00
2013-11-24,42.5,38.2,34.4,39.5,35.2,32.5,95,89,74,30.31,30.13,5,2,13,0.41
2013-11-25,40.1,37.4,34.4,39.1,36.1,33.1,96,95,90,30.15,29.90,4,1,12,0.37
2013-11-26,51.4,43.0,37.9,39.5,35.1,29.6,91,75,56,30.17,29.91,6,2,12,0.00
2013-11-27,51.1,39.9,30.1,32.1,27.0,21.3,91,63,32,30.30,30.17,4,1,10,0.00
2013-11-28,53.9,37.8,28.5,35.4,29.1,24.8,95,75,34,30.28,30.16,1,0,5,0.00
2013-11-29,60.8,45.9,29.6,51.1,41.8,27.7,96,86,69,30.32,30.17,2,0,4,0.00
2013-11-30,67.1,56.4,48.4,59.1,51.6,44.6,94,84,72,30.20,29.99,1,0,3,0.00
2013-12-1,70.4,62.5,56.2,61.4,58.2,54.4,95,86,72,30.01,29.75,5,1,8,0.00
2013-12-2,78.8,64.3,49.8,60.4,55.4,46.7,93,75,39,29.76,29.48,5,1,8,0.00
2013-12-3,83.9,65.0,52.4,60.6,51.6,43.8,94,67,25,29.52,29.40,4,1,8,0.00
2013-12-4,74.4,61.5,50.0,67.4,57.9,47.8,97,88,75,29.60,29.47,2,0,5,0.00
2013-12-5,67.3,47.3,33.4,66.4,42.5,27.9,97,84,69,29.88,29.59,5,3,14,0.02
2013-12-6,38.9,33.7,29.4,33.4,29.3,23.7,93,84,74,30.24,29.84,5,3,10,0.06
2013-12-7,32.4,29.3,26.4,26.2,23.4,20.5,90,78,73,30.28,30.09,5,2,12,0.00
2013-12-8,48.2,36.7,28.5,40.6,32.4,25.9,93,85,74,30.11,29.85,1,0,5,0.00
2013-12-9,40.5,38.9,34.7,39.4,37.5,30.8,96,95,88,30.19,29.89,5,2,16,0.07
2013-12-10,47.5,34.9,26.9,32.3,26.6,23.4,90,74,40,30.33,30.16,4,1,13,0.00
2013-12-11,59.8,41.4,26.7,36.5,31.3,23.9,93,71,37,30.36,30.15,2,0,6,0.00
2013-12-12,51.5,42.2,35.0,38.0,34.0,29.1,88,73,56,30.41,30.12,2,0,6,0.00
2013-12-13,50.6,46.4,41.2,49.5,43.0,37.6,96,88,76,30.13,29.71,4,0,6,0.07
2013-12-14,53.7,47.9,43.0,49.1,40.7,31.6,97,77,61,30.14,29.71,6,2,11,0.00
2013-12-15,60.2,42.6,29.3,39.5,31.4,25.4,90,68,37,30.23,30.09,3,0,4,0.00
2013-12-16,64.7,42.7,27.9,41.0,32.0,25.9,95,71,32,30.14,30.02,5,1,9,0.00
2013-12-17,69.3,48.5,33.5,47.8,38.8,30.1,94,73,35,30.15,30.04,4,0,5,0.00
2013-12-18,69.1,52.2,34.8,55.9,46.0,32.4,99,81,53,30.11,29.88,3,0,7,0.00
2013-12-19,74.2,63.9,51.5,62.6,58.5,47.5,94,83,66,29.87,29.60,3,1,14,0.00
2013-12-20,73.1,67.5,62.8,67.5,64.6,61.0,95,91,79,29.65,29.43,3,0,7,0.00
2013-12-21,71.1,59.2,41.9,67.7,54.6,39.6,97,87,42,29.65,29.34,5,1,11,0.40
2013-12-22,56.3,45.6,38.6,46.2,38.6,31.1,96,78,56,30.17,29.65,5,1,11,0.00
2013-12-23,56.8,40.0,30.2,35.9,29.6,26.3,91,70,34,30.36,30.17,2,0,5,0.00
2013-12-24,58.3,39.2,27.0,38.5,29.9,25.2,96,74,31,30.36,30.10,1,0,5,0.00
2013-12-25,55.1,45.4,33.0,48.6,41.7,30.7,95,87,75,30.20,30.06,2,0,5,0.00
2013-12-26,54.2,47.7,42.8,45.6,41.0,36.5,91,78,66,30.25,30.13,3,1,6,0.01
2013-12-27,55.9,48.3,40.2,48.1,43.9,37.5,94,85,62,30.25,30.13,2,0,5,0.08
2013-12-28,57.3,48.0,39.3,47.4,42.2,36.9,96,81,57,30.13,29.84,3,0,5,0.00
2013-12-29,63.5,48.1,35.5,52.9,43.0,30.8,96,83,68,30.07,29.79,4,1,14,0.01
2013-12-30,43.4,37.7,34.8,32.6,29.7,26.2,85,73,57,30.22,30.03,3,1,11,0.00
2013-12-31,50.9,40.4,34.8,33.1,31.3,27.8,88,72,44,30.29,30.07,2,0,4,0.00
2014-1-1,58.5,48.1,33.3,50.4,42.3,30.0,91,81,68,30.07,29.84,5,1,8,0.00
2014-1-2,52.1,42.5,27.5,49.8,30.9,23.1,92,65,41,30.27,29.91,6,2,13,0.00